Time;durP1;ratioP1;P1;durP2;ratioP2;P2;SDS_P1;SDS_P2;PMS_P1;PMS_P2;Temp;Humidity;BMP_temperature;BMP_pressure;BME280_temperature;BME280_humidity;BME280_pressure;Samples;Min_cycle;Max_cycle;Signal;HPM_P1;HPM_P2
2023/10/10 00:01:17;;;;;;;20.85;14.27;;;18.10;86.00;;;;;;5033893;28;20447;-69
2023/10/10 00:03:45;;;;;;;21.73;14.50;;;18.10;86.00;;;;;;5033569;28;20037;-69
2023/10/10 00:06:14;;;;;;;23.10;14.18;;;18.10;86.00;;;;;;5033444;28;20062;-69
2023/10/10 00:08:44;;;;;;;22.75;14.70;;;18.10;86.00;;;;;;5033751;28;20482;-70
2023/10/10 00:11:14;;;;;;;22.33;14.65;;;18.10;86.00;;;;;;5034339;28;20052;-69
2023/10/10 00:13:52;;;;;;;19.70;14.15;;;18.10;86.00;;;;;;5031618;28;20041;-69
2023/10/10 00:16:26;;;;;;;21.77;15.02;;;18.10;86.00;;;;;;5033246;28;20442;-69
2023/10/10 00:18:55;;;;;;;19.95;14.25;;;18.00;85.90;;;;;;5032734;28;20476;-69
2023/10/10 00:21:23;;;;;;;20.55;14.60;;;18.00;86.00;;;;;;5049849;28;20338;-69
2023/10/10 00:23:50;;;;;;;21.85;14.95;;;18.00;86.00;;;;;;5032609;28;20033;-69
2023/10/10 00:26:26;;;;;;;21.08;14.43;;;18.00;86.00;;;;;;5032219;28;20025;-69
2023/10/10 00:28:56;;;;;;;22.63;15.35;;;18.00;86.00;;;;;;5048447;28;20025;-69
2023/10/10 00:31:28;;;;;;;20.42;14.60;;;17.90;85.90;;;;;;5027605;28;20136;-69
2023/10/10 00:33:55;;;;;;;20.35;15.95;;;17.90;85.80;;;;;;5032027;28;20036;-69
2023/10/10 00:36:22;;;;;;;21.40;15.15;;;17.90;85.90;;;;;;5032687;28;20352;-69
2023/10/10 00:41:44;;;;;;;22.48;14.40;;;17.90;85.90;;;;;;5038674;28;20048;-69
2023/10/10 00:44:16;;;;;;;21.58;16.45;;;17.90;85.90;;;;;;5049925;28;20123;-69
2023/10/10 00:46:42;;;;;;;24.05;16.20;;;17.90;85.90;;;;;;5034210;28;20446;-69
2023/10/10 00:49:16;;;;;;;22.88;15.63;;;17.90;85.80;;;;;;5047270;28;20493;-70
2023/10/10 00:51:47;;;;;;;19.45;15.15;;;17.90;85.80;;;;;;5043503;28;20021;-69
2023/10/10 00:56:54;;;;;;;23.38;15.88;;;17.80;85.90;;;;;;5048055;28;20170;-69
2023/10/10 00:59:42;;;;;;;21.25;15.02;;;17.90;86.00;;;;;;5036565;28;20037;-69
2023/10/10 01:02:10;;;;;;;25.15;16.33;;;17.90;86.00;;;;;;5041991;28;20438;-69
2023/10/10 01:04:39;;;;;;;23.27;15.43;;;17.90;85.90;;;;;;5046813;28;20025;-69
2023/10/10 01:07:08;;;;;;;21.25;15.75;;;17.90;85.90;;;;;;5034782;28;20531;-69
2023/10/10 01:09:51;;;;;;;22.00;15.43;;;17.80;85.80;;;;;;5046982;28;20025;-69
2023/10/10 01:12:17;;;;;;;22.48;15.45;;;17.80;85.80;;;;;;5040521;28;20045;-69
2023/10/10 01:14:43;;;;;;;20.95;15.70;;;17.70;85.70;;;;;;5050872;28;20107;-69
2023/10/10 01:17:12;;;;;;;25.63;16.52;;;17.70;85.80;;;;;;5041152;28;20025;-69
2023/10/10 01:19:38;;;;;;;21.35;16.25;;;17.70;85.80;;;;;;5033285;28;20022;-69
2023/10/10 01:22:04;;;;;;;23.75;16.73;;;17.70;85.70;;;;;;5048280;28;20028;-69
2023/10/10 01:24:32;;;;;;;20.95;15.98;;;17.70;85.70;;;;;;5043664;28;20475;-69
2023/10/10 01:27:11;;;;;;;22.25;16.10;;;17.70;85.70;;;;;;5041147;28;20050;-69
2023/10/10 01:29:49;;;;;;;21.88;16.40;;;17.70;85.70;;;;;;5037772;28;20053;-69
2023/10/10 01:32:17;;;;;;;24.08;17.23;;;17.70;85.70;;;;;;5050738;28;20118;-69
2023/10/10 01:34:44;;;;;;;21.65;17.05;;;17.70;85.70;;;;;;5038587;28;20067;-69
2023/10/10 01:37:14;;;;;;;22.30;16.15;;;17.70;85.70;;;;;;5038461;28;20120;-69
2023/10/10 01:39:51;;;;;;;25.00;16.38;;;17.70;86.40;;;;;;5019580;28;20025;-69
2023/10/10 01:42:23;;;;;;;20.27;16.20;;;17.60;85.70;;;;;;5031004;28;20450;-69
2023/10/10 01:44:51;;;;;;;24.08;16.23;;;17.70;85.70;;;;;;5040542;28;20028;-69
2023/10/10 01:47:26;;;;;;;23.98;16.60;;;17.60;85.70;;;;;;5045690;28;20132;-69
2023/10/10 01:49:58;;;;;;;23.35;16.60;;;17.70;85.70;;;;;;5050315;28;20470;-69
2023/10/10 01:52:25;;;;;;;22.38;16.15;;;17.60;85.60;;;;;;5044226;28;20071;-69
2023/10/10 01:54:53;;;;;;;23.65;16.45;;;17.60;85.60;;;;;;5049418;28;20071;-69
2023/10/10 01:57:22;;;;;;;23.73;18.08;;;17.60;85.60;;;;;;5038884;28;20031;-69
2023/10/10 01:59:49;;;;;;;26.10;17.38;;;17.60;85.60;;;;;;5031207;28;20075;-69
2023/10/10 02:02:16;;;;;;;20.67;16.70;;;17.60;85.50;;;;;;5045412;28;20592;-69
2023/10/10 02:04:45;;;;;;;25.83;16.35;;;17.50;85.50;;;;;;5037374;28;20068;-69
2023/10/10 02:07:16;;;;;;;22.65;17.30;;;17.50;85.40;;;;;;5054053;28;20140;-69
2023/10/10 02:09:43;;;;;;;23.30;16.63;;;17.50;85.40;;;;;;5034987;28;20029;-69
2023/10/10 02:12:15;;;;;;;21.92;17.90;;;17.50;85.40;;;;;;5040000;28;20036;-69
2023/10/10 02:14:43;;;;;;;24.83;16.98;;;17.40;85.30;;;;;;5027863;28;20036;-69
2023/10/10 02:17:26;;;;;;;21.90;16.25;;;17.40;85.20;;;;;;5038385;28;20311;-68
2023/10/10 02:20:18;;;;;;;25.42;17.92;;;17.40;85.20;;;;;;5046432;28;20029;-69
2023/10/10 02:22:49;;;;;;;24.92;17.02;;;17.40;85.20;;;;;;5042107;28;20021;-69
2023/10/10 02:27:54;;;;;;;21.17;16.10;;;17.30;85.10;;;;;;5038777;28;20301;-69
2023/10/10 02:30:36;;;;;;;21.15;15.90;;;17.30;85.10;;;;;;5044187;28;20488;-69
2023/10/10 02:33:16;;;;;;;22.25;16.20;;;17.30;85.00;;;;;;5040863;28;20150;-69
2023/10/10 02:35:55;;;;;;;21.60;16.02;;;17.30;85.00;;;;;;5040831;28;20124;-69
2023/10/10 02:41:38;;;;;;;23.55;16.50;;;17.20;84.90;;;;;;5052732;28;20508;-69
2023/10/10 02:44:07;;;;;;;21.60;16.17;;;17.20;84.90;;;;;;5039672;28;20315;-69
2023/10/10 02:46:35;;;;;;;23.67;16.85;;;17.20;84.90;;;;;;5036134;28;20036;-69
2023/10/10 02:49:12;;;;;;;21.85;16.67;;;17.10;84.80;;;;;;5041583;28;20018;-69
2023/10/10 02:51:48;;;;;;;22.90;16.38;;;17.10;84.60;;;;;;5068779;28;20078;-69
2023/10/10 02:57:26;;;;;;;22.88;16.45;;;17.10;84.60;;;;;;5033550;28;20100;-69
2023/10/10 02:59:45;;;;;;;22.30;16.73;;;17.10;84.60;;;;;;5041936;28;20106;-69
2023/10/10 03:02:22;;;;;;;23.40;17.38;;;17.10;84.60;;;;;;5045929;28;20080;-69
2023/10/10 03:04:53;;;;;;;24.30;16.88;;;17.10;84.60;;;;;;5041074;28;20443;-69
2023/10/10 03:07:28;;;;;;;21.73;16.33;;;17.00;84.50;;;;;;5020818;28;20486;-69
2023/10/10 03:10:23;;;;;;;24.08;17.17;;;17.00;84.50;;;;;;5035934;28;20064;-69
2023/10/10 03:12:51;;;;;;;22.10;15.75;;;17.00;84.40;;;;;;5031783;28;20026;-69
2023/10/10 03:18:04;;;;;;;25.13;15.93;;;17.00;84.40;;;;;;5040583;28;20025;-69
2023/10/10 03:25:51;;;;;;;21.85;16.23;;;16.90;84.30;;;;;;5034586;28;20521;-69
2023/10/10 05:25:22;;;;;;;35.47;23.90;;;17.10;86.40;;;;;;5036515;28;20099;-72
2023/10/10 05:27:51;;;;;;;36.25;24.13;;;17.10;86.40;;;;;;5037123;28;20374;-71
2023/10/10 05:30:23;;;;;;;36.78;25.38;;;17.10;86.40;;;;;;5046165;28;20358;-71
2023/10/10 05:33:05;;;;;;;36.38;24.70;;;17.10;86.50;;;;;;5042847;28;20034;-72
2023/10/10 05:35:33;;;;;;;39.22;24.67;;;17.20;86.50;;;;;;5057140;28;20111;-72
2023/10/10 05:38:00;;;;;;;38.00;25.95;;;17.20;86.60;;;;;;5056847;28;20396;-72
2023/10/10 05:40:26;;;;;;;38.63;25.42;;;17.20;86.60;;;;;;5055357;28;20033;-72
2023/10/10 05:42:53;;;;;;;39.58;26.17;;;17.20;86.60;;;;;;5042016;28;20475;-72
2023/10/10 05:45:20;;;;;;;43.90;25.70;;;17.20;86.60;;;;;;5057843;28;20032;-72
2023/10/10 05:47:47;;;;;;;41.72;26.17;;;17.20;86.60;;;;;;5043587;28;20033;-72
2023/10/10 05:50:13;;;;;;;36.92;25.38;;;17.20;86.60;;;;;;5041843;28;20037;-71
2023/10/10 05:52:43;;;;;;;40.80;26.27;;;17.20;86.70;;;;;;5031411;28;20075;-71
2023/10/10 05:55:14;;;;;;;39.72;25.92;;;17.20;86.80;;;;;;5029947;28;20231;-72
2023/10/10 05:57:40;;;;;;;43.50;26.58;;;17.20;86.70;;;;;;5032685;28;20370;-72
2023/10/10 06:00:13;;;;;;;45.53;26.98;;;17.20;86.90;;;;;;5031412;28;20029;-71
2023/10/10 06:02:46;;;;;;;43.50;27.63;;;17.20;86.70;;;;;;5028785;28;20083;-72
2023/10/10 06:05:15;;;;;;;47.25;28.67;;;17.20;86.70;;;;;;5043173;28;20422;-70
2023/10/10 06:07:45;;;;;;;47.83;29.50;;;17.20;86.70;;;;;;5029707;28;20072;-71
2023/10/10 06:10:16;;;;;;;47.65;29.98;;;17.20;86.70;;;;;;5032446;28;20036;-71
2023/10/10 06:12:47;;;;;;;42.28;27.60;;;17.20;86.80;;;;;;5030030;28;20040;-70
2023/10/10 06:15:17;;;;;;;39.20;27.00;;;17.20;86.80;;;;;;5043837;28;20443;-71
2023/10/10 06:17:43;;;;;;;44.35;29.38;;;17.20;86.70;;;;;;5032100;28;20107;-70
2023/10/10 06:20:10;;;;;;;44.95;29.45;;;17.20;86.70;;;;;;5032792;28;20037;-70
2023/10/10 06:22:37;;;;;;;44.17;28.70;;;17.30;86.70;;;;;;5032111;28;20021;-71
2023/10/10 06:25:06;;;;;;;46.08;29.30;;;17.30;86.70;;;;;;5037764;28;20029;-71
2023/10/10 06:27:36;;;;;;;43.95;29.10;;;17.30;86.60;;;;;;5028552;28;20040;-71
2023/10/10 06:30:04;;;;;;;44.75;27.65;;;17.30;86.60;;;;;;5034465;28;20042;-71
2023/10/10 06:32:33;;;;;;;42.33;27.98;;;17.30;86.60;;;;;;5034933;28;20065;-72
2023/10/10 06:35:27;;;;;;;42.67;29.13;;;17.40;86.60;;;;;;5043912;28;20025;-71
2023/10/10 06:37:53;;;;;;;45.38;27.17;;;17.30;86.50;;;;;;5036280;28;20106;-71
2023/10/10 06:40:27;;;;;;;43.80;28.70;;;17.30;86.40;;;;;;5043551;28;20017;-71
2023/10/10 06:42:55;;;;;;;48.63;28.80;;;17.30;86.40;;;;;;5055072;28;20059;-71
2023/10/10 06:45:23;;;;;;;47.13;27.73;;;17.40;86.50;;;;;;5055199;28;20039;-69
2023/10/10 06:47:51;;;;;;;47.00;29.30;;;17.40;86.50;;;;;;5051355;28;20042;-70
2023/10/10 06:50:23;;;;;;;47.15;28.48;;;17.30;86.40;;;;;;5050015;28;20037;-69
2023/10/10 06:52:52;;;;;;;45.25;29.85;;;17.40;86.40;;;;;;5040764;28;20033;-70
2023/10/10 06:55:22;;;;;;;48.67;29.10;;;17.40;86.40;;;;;;5049534;28;20033;-71
2023/10/10 06:57:59;;;;;;;41.23;28.80;;;17.40;86.30;;;;;;5047379;28;20343;-70
2023/10/10 07:00:45;;;;;;;44.35;29.83;;;17.40;86.30;;;;;;5055264;28;20279;-71
2023/10/10 07:03:19;;;;;;;42.17;28.45;;;17.40;86.20;;;;;;5049866;28;20041;-70
2023/10/10 07:05:45;;;;;;;45.53;29.80;;;17.50;86.10;;;;;;5027096;28;20041;-72
2023/10/10 07:08:19;;;;;;;48.47;32.72;;;17.50;86.00;;;;;;5037071;28;20025;-72
2023/10/10 07:10:45;;;;;;;44.72;28.85;;;17.50;85.90;;;;;;5028140;28;20111;-72
2023/10/10 07:13:18;;;;;;;45.40;31.13;;;17.50;85.80;;;;;;5055799;28;20033;-73
2023/10/10 07:15:51;;;;;;;44.15;31.10;;;17.60;85.80;;;;;;5046957;28;20338;-72
2023/10/10 07:18:24;;;;;;;45.72;31.42;;;17.60;85.70;;;;;;5037213;28;20030;-72
2023/10/10 07:21:08;;;;;;;44.72;29.30;;;17.60;85.60;;;;;;5035244;28;20112;-73
2023/10/10 07:23:38;;;;;;;41.03;29.55;;;17.60;85.40;;;;;;5035995;28;20033;-72
2023/10/10 07:26:19;;;;;;;41.85;30.20;;;17.60;85.30;;;;;;5035697;28;20108;-72
2023/10/10 07:28:48;;;;;;;39.90;30.20;;;17.60;85.20;;;;;;5045046;28;20025;-72
2023/10/10 07:31:18;;;;;;;40.63;29.42;;;17.60;85.20;;;;;;5040572;28;20131;-72
2023/10/10 07:34:03;;;;;;;39.78;29.20;;;17.70;85.00;;;;;;5054476;28;20082;-72
2023/10/10 07:36:31;;;;;;;41.20;27.85;;;17.70;84.90;;;;;;5055580;28;20021;-72
2023/10/10 07:41:45;;;;;;;36.50;27.05;;;17.70;84.60;;;;;;5053311;28;20047;-72
2023/10/10 07:44:22;;;;;;;37.10;26.42;;;17.70;84.40;;;;;;5054234;28;20369;-72
2023/10/10 07:49:33;;;;;;;34.35;24.60;;;17.80;84.10;;;;;;5055045;28;20091;-72
2023/10/10 07:52:02;;;;;;;33.38;25.20;;;17.80;84.00;;;;;;5042171;28;20021;-72
2023/10/10 07:54:29;;;;;;;34.22;23.85;;;17.80;83.80;;;;;;5030409;28;20048;-72
2023/10/10 07:56:55;;;;;;;34.17;23.63;;;17.80;83.70;;;;;;5050763;28;20036;-72
2023/10/10 07:59:21;;;;;;;29.92;22.80;;;17.80;83.50;;;;;;5046115;28;20025;-72
2023/10/10 08:01:48;;;;;;;33.88;24.52;;;17.80;83.40;;;;;;5055228;28;20438;-72
2023/10/10 08:04:14;;;;;;;32.78;23.80;;;17.80;83.20;;;;;;5054772;28;20032;-72
2023/10/10 08:06:44;;;;;;;32.78;22.63;;;17.90;83.30;;;;;;5060350;28;20033;-72
2023/10/10 08:11:46;;;;;;;32.53;22.75;;;18.00;82.90;;;;;;5023105;28;20033;-72
2023/10/10 08:14:12;;;;;;;31.80;22.55;;;18.10;82.70;;;;;;5033807;28;20053;-72
2023/10/10 08:16:40;;;;;;;32.20;22.17;;;18.10;82.30;;;;;;5035057;28;20029;-72
2023/10/10 08:19:08;;;;;;;27.40;20.65;;;18.20;82.10;;;;;;5033095;28;20022;-72
2023/10/10 08:21:37;;;;;;;28.58;21.65;;;18.30;81.80;;;;;;5032375;28;20029;-72
2023/10/10 08:24:06;;;;;;;25.98;19.60;;;18.30;81.60;;;;;;5032635;28;20040;-72
2023/10/10 08:26:39;;;;;;;24.38;18.25;;;18.40;81.40;;;;;;5033946;28;20033;-70
2023/10/10 08:29:08;;;;;;;27.30;19.15;;;18.40;81.10;;;;;;5044447;28;20049;-72
2023/10/10 08:31:36;;;;;;;22.85;18.27;;;18.50;80.90;;;;;;5040884;28;20055;-72
2023/10/10 08:34:02;;;;;;;25.65;19.45;;;18.60;80.70;;;;;;5046499;28;20033;-71
2023/10/10 08:36:29;;;;;;;25.70;19.02;;;18.60;80.50;;;;;;5045760;28;20028;-71
2023/10/10 08:39:11;;;;;;;23.38;18.55;;;18.70;80.20;;;;;;5053374;28;20032;-70
2023/10/10 08:41:38;;;;;;;23.55;18.88;;;18.80;80.00;;;;;;5041150;28;20086;-71
2023/10/10 08:44:09;;;;;;;24.58;17.60;;;18.80;79.70;;;;;;5032440;28;20378;-70
2023/10/10 08:46:41;;;;;;;23.50;17.20;;;18.90;79.50;;;;;;5029869;28;20057;-71
2023/10/10 08:49:08;;;;;;;24.13;16.13;;;18.90;79.40;;;;;;5045464;28;20033;-71
2023/10/10 08:51:34;;;;;;;25.98;18.70;;;19.00;79.80;;;;;;5031089;28;20030;-71
2023/10/10 08:54:11;;;;;;;21.48;16.23;;;19.10;78.70;;;;;;5028675;28;20029;-72
2023/10/10 08:56:40;;;;;;;20.48;14.68;;;19.30;78.40;;;;;;5027766;28;20034;-71
2023/10/10 08:59:09;;;;;;;20.80;15.23;;;19.30;78.00;;;;;;5029811;28;20025;-71
2023/10/10 09:01:38;;;;;;;20.00;14.90;;;19.30;77.80;;;;;;5029569;28;20071;-71
2023/10/10 09:04:05;;;;;;;22.58;16.73;;;19.40;77.70;;;;;;5025910;28;20030;-71
2023/10/10 09:06:59;;;;;;;23.80;15.05;;;19.50;77.50;;;;;;5027323;28;20069;-71
2023/10/10 09:09:34;;;;;;;18.73;13.95;;;19.50;77.00;;;;;;5029424;28;20052;-71
2023/10/10 09:12:04;;;;;;;20.92;13.25;;;19.60;76.60;;;;;;5037238;28;20061;-72
2023/10/10 09:14:41;;;;;;;20.13;14.20;;;19.70;76.40;;;;;;5026287;28;20045;-71
2023/10/10 09:17:28;;;;;;;19.85;13.35;;;19.70;76.00;;;;;;5030061;28;20116;-71
2023/10/10 09:19:57;;;;;;;18.63;13.60;;;19.80;75.70;;;;;;5029210;28;20028;-71
2023/10/10 09:22:42;;;;;;;18.88;13.35;;;19.80;75.50;;;;;;5027235;28;20500;-72
2023/10/10 09:25:48;;;;;;;19.13;12.60;;;19.90;75.20;;;;;;5027235;28;20477;-71
2023/10/10 09:28:18;;;;;;;20.15;13.32;;;20.00;74.80;;;;;;5042353;28;20109;-71
2023/10/10 09:30:58;;;;;;;20.20;13.35;;;20.00;74.70;;;;;;5029584;28;20056;-71
2023/10/10 09:33:33;;;;;;;19.67;12.75;;;20.10;74.40;;;;;;5028780;28;20037;-70
2023/10/10 09:36:09;;;;;;;18.48;12.60;;;20.10;74.30;;;;;;5030385;28;20367;-71
2023/10/10 09:38:49;;;;;;;18.23;11.73;;;20.20;73.90;;;;;;5038097;28;20034;-71
2023/10/10 09:44:30;;;;;;;18.08;11.75;;;20.40;73.30;;;;;;5046194;28;20063;-70
2023/10/10 10:06:51;;;;;;;17.73;12.23;;;21.30;70.80;;;;;;5044312;28;20032;-73
2023/10/10 10:09:17;;;;;;;17.27;11.70;;;21.40;70.70;;;;;;5049850;28;20387;-73
2023/10/10 10:12:30;;;;;;;15.60;11.50;;;21.50;70.20;;;;;;5050448;28;20072;-73
2023/10/10 10:15:18;;;;;;;15.45;10.15;;;21.60;69.80;;;;;;5045644;28;20044;-73
2023/10/10 10:18:26;;;;;;;17.20;10.75;;;21.80;69.70;;;;;;5057068;28;20040;-72
2023/10/10 10:21:16;;;;;;;16.42;11.40;;;21.90;69.70;;;;;;5045639;28;20398;-72
2023/10/10 10:23:45;;;;;;;17.20;12.40;;;21.90;69.40;;;;;;5056831;28;20033;-72
2023/10/10 10:26:33;;;;;;;17.92;12.27;;;22.10;69.10;;;;;;5053181;28;20025;-72
2023/10/10 10:29:15;;;;;;;15.50;11.48;;;22.10;68.60;;;;;;5046803;28;20036;-72
2023/10/10 10:31:49;;;;;;;19.67;12.93;;;22.20;68.40;;;;;;5031700;28;20049;-71
2023/10/10 10:34:31;;;;;;;17.13;12.50;;;22.20;68.20;;;;;;5046618;28;20464;-70
2023/10/10 10:37:13;;;;;;;18.23;12.02;;;22.20;68.00;;;;;;5028838;28;20060;-70
2023/10/10 10:40:09;;;;;;;17.08;11.45;;;22.20;67.80;;;;;;5042147;28;20063;-69
2023/10/10 10:42:27;;;;;;;18.45;11.45;;;22.30;67.80;;;;;;5039313;28;20053;-71
2023/10/10 10:47:46;;;;;;;17.38;12.10;;;22.40;67.50;;;;;;5031137;28;20387;-72
2023/10/10 10:50:40;;;;;;;17.25;11.18;;;22.40;67.30;;;;;;5030017;28;20036;-72
2023/10/10 10:53:08;;;;;;;16.15;11.20;;;22.50;67.30;;;;;;5029521;28;20060;-70
2023/10/10 10:55:41;;;;;;;16.70;10.93;;;22.60;67.20;;;;;;5033834;28;20052;-71
2023/10/10 10:58:08;;;;;;;19.30;11.00;;;22.70;67.00;;;;;;5022429;28;20389;-71
2023/10/10 11:00:57;;;;;;;17.08;10.93;;;22.70;66.80;;;;;;5030938;28;20037;-70
2023/10/10 11:03:24;;;;;;;15.98;10.93;;;22.70;66.70;;;;;;5030538;28;21022;-71
2023/10/10 11:05:54;;;;;;;17.80;10.90;;;22.80;66.60;;;;;;5013448;28;20034;-70
2023/10/10 11:08:50;;;;;;;16.52;10.45;;;22.80;66.30;;;;;;5031416;28;20033;-72
2023/10/10 11:11:23;;;;;;;16.05;10.52;;;22.90;66.30;;;;;;5043734;28;20111;-73
2023/10/10 11:13:54;;;;;;;16.48;10.75;;;23.00;66.40;;;;;;5044985;28;20051;-73
2023/10/10 11:16:28;;;;;;;16.35;10.68;;;22.90;66.10;;;;;;5028833;28;20056;-72
2023/10/10 11:19:04;;;;;;;16.52;11.27;;;22.90;66.00;;;;;;5043445;28;20095;-72
2023/10/10 11:21:31;;;;;;;16.77;10.50;;;23.00;66.10;;;;;;5030508;28;20030;-72
2023/10/10 11:24:00;;;;;;;16.05;9.82;;;23.10;65.80;;;;;;5036284;28;20030;-72
2023/10/10 11:26:34;;;;;;;17.17;10.48;;;23.10;65.60;;;;;;5032361;28;20029;-72
2023/10/10 11:29:01;;;;;;;16.10;9.95;;;23.10;65.40;;;;;;5030161;28;20041;-73
2023/10/10 11:31:33;;;;;;;19.38;10.35;;;23.10;65.40;;;;;;5027309;28;20049;-72
2023/10/10 11:34:26;;;;;;;15.38;9.90;;;23.10;65.10;;;;;;5029725;28;20369;-72
2023/10/10 11:37:32;;;;;;;14.20;8.75;;;23.20;65.10;;;;;;5029935;28;20083;-72
2023/10/10 11:43:03;;;;;;;18.92;11.07;;;23.20;64.80;;;;;;5044904;28;20037;-70
2023/10/10 11:45:30;;;;;;;14.27;9.32;;;23.20;64.60;;;;;;5030806;28;20167;-70
2023/10/10 11:48:10;;;;;;;16.13;11.23;;;23.20;64.90;;;;;;5029130;28;20033;-70
2023/10/10 11:50:44;;;;;;;15.33;9.90;;;23.20;64.90;;;;;;5028884;28;20447;-70
2023/10/10 11:53:15;;;;;;;15.82;9.32;;;23.20;64.80;;;;;;5026534;28;20481;-70
2023/10/10 11:55:44;;;;;;;14.27;9.23;;;23.20;65.00;;;;;;5031865;28;20423;-72
2023/10/10 11:58:16;;;;;;;15.07;9.05;;;23.20;65.20;;;;;;5044066;28;20044;-73
2023/10/10 12:00:43;;;;;;;13.15;8.82;;;23.20;65.20;;;;;;5044582;28;20117;-73
2023/10/10 12:03:13;;;;;;;14.90;9.48;;;23.20;65.10;;;;;;5031987;28;20358;-73
2023/10/10 12:05:49;;;;;;;15.30;9.65;;;23.20;65.00;;;;;;5029280;28;20443;-73
2023/10/10 12:08:23;;;;;;;15.65;8.98;;;23.10;64.90;;;;;;5064593;28;20029;-73
2023/10/10 12:10:52;;;;;;;16.33;9.40;;;23.10;64.80;;;;;;5055209;28;20029;-73
2023/10/10 12:13:52;;;;;;;13.07;8.50;;;23.20;64.90;;;;;;5054152;28;20025;-73
2023/10/10 12:16:11;;;;;;;14.05;8.88;;;23.20;64.90;;;;;;5042876;28;20033;-73
2023/10/10 12:18:45;;;;;;;14.07;8.88;;;23.20;65.00;;;;;;5053630;28;20086;-73
2023/10/10 12:21:15;;;;;;;15.82;10.52;;;23.20;65.10;;;;;;5055114;28;20044;-73
2023/10/10 12:23:41;;;;;;;15.65;9.38;;;23.10;64.90;;;;;;5055180;28;20342;-73
2023/10/10 12:26:09;;;;;;;14.75;9.43;;;23.10;65.00;;;;;;5051541;28;20075;-73
2023/10/10 12:28:35;;;;;;;15.43;9.10;;;23.00;65.00;;;;;;5042327;28;20126;-73
2023/10/10 12:31:08;;;;;;;15.70;9.75;;;22.90;65.10;;;;;;5053222;28;20110;-74
2023/10/10 12:33:38;;;;;;;14.60;9.80;;;22.80;65.20;;;;;;5055024;28;20033;-73
2023/10/10 12:36:09;;;;;;;16.38;9.13;;;22.70;65.20;;;;;;5053611;28;20124;-73
2023/10/10 12:38:37;;;;;;;14.18;7.97;;;22.60;65.20;;;;;;5047827;28;20101;-73
2023/10/10 12:41:11;;;;;;;13.82;8.85;;;22.60;65.30;;;;;;5048839;28;20029;-73
2023/10/10 12:43:37;;;;;;;13.73;8.30;;;22.60;65.40;;;;;;5041767;28;20057;-72
2023/10/10 12:46:04;;;;;;;14.32;8.90;;;22.60;65.40;;;;;;5054647;28;20036;-71
2023/10/10 12:48:31;;;;;;;13.20;8.20;;;22.60;65.40;;;;;;5054275;28;20032;-71
2023/10/10 12:51:00;;;;;;;16.23;8.88;;;22.60;65.50;;;;;;5047891;28;20037;-71
2023/10/10 12:53:30;;;;;;;13.38;8.75;;;22.50;65.40;;;;;;5052179;28;20037;-71
2023/10/10 12:56:01;;;;;;;13.98;8.77;;;22.50;65.30;;;;;;5054533;28;20033;-72
2023/10/10 12:58:28;;;;;;;14.52;9.07;;;22.50;65.40;;;;;;5054347;28;20319;-73
2023/10/10 13:00:54;;;;;;;14.88;8.60;;;22.40;65.50;;;;;;5054663;28;20035;-73
2023/10/10 13:03:37;;;;;;;14.75;9.45;;;22.40;65.50;;;;;;5046755;28;20132;-74
2023/10/10 13:06:04;;;;;;;16.52;9.80;;;22.40;65.60;;;;;;5028596;28;20022;-73
2023/10/10 13:09:18;;;;;;;15.80;9.23;;;22.40;65.70;;;;;;5049184;28;20107;-73
2023/10/10 13:11:20;;;;;;;14.80;9.20;;;22.30;65.70;;;;;;5053515;28;20032;-73
2023/10/10 13:13:51;;;;;;;14.80;9.07;;;22.30;65.90;;;;;;5057001;28;20029;-73
2023/10/10 13:16:25;;;;;;;15.02;9.18;;;22.20;65.80;;;;;;5053398;28;20034;-73
2023/10/10 13:18:52;;;;;;;15.82;8.63;;;22.20;65.80;;;;;;5054158;28;20029;-73
2023/10/10 13:21:19;;;;;;;14.15;9.07;;;22.20;65.60;;;;;;5051114;28;20033;-72
2023/10/10 13:23:52;;;;;;;15.55;9.00;;;22.20;65.40;;;;;;5040581;28;20116;-72
2023/10/10 13:26:20;;;;;;;16.02;8.63;;;22.20;65.30;;;;;;5035054;28;20025;-75
2023/10/10 13:28:46;;;;;;;14.30;7.60;;;22.20;65.30;;;;;;5048520;28;20089;-73
2023/10/10 13:31:13;;;;;;;12.43;7.90;;;22.20;65.40;;;;;;5052772;28;20076;-73
2023/10/10 13:33:39;;;;;;;14.70;7.75;;;22.20;65.40;;;;;;5035261;28;20033;-74
2023/10/10 13:36:12;;;;;;;13.13;7.32;;;22.20;65.30;;;;;;5035589;28;20598;-73
2023/10/10 13:38:48;;;;;;;15.48;7.90;;;22.20;65.20;;;;;;5043488;28;20044;-73
2023/10/10 13:41:22;;;;;;;14.25;8.38;;;22.20;64.90;;;;;;5036349;28;20037;-73
2023/10/10 13:43:52;;;;;;;13.48;7.07;;;22.30;64.80;;;;;;5033570;28;20029;-73
2023/10/10 13:46:19;;;;;;;12.57;7.25;;;22.30;65.20;;;;;;5041712;28;20060;-74
2023/10/10 13:48:46;;;;;;;13.90;7.10;;;22.30;64.50;;;;;;5039100;28;20037;-73
2023/10/10 13:51:15;;;;;;;13.45;7.18;;;22.30;64.50;;;;;;5037862;28;20029;-74
2023/10/10 13:53:45;;;;;;;14.63;7.20;;;22.40;64.70;;;;;;5031525;28;20453;-74
2023/10/10 13:56:13;;;;;;;11.88;6.78;;;22.40;64.80;;;;;;5029360;28;20426;-74
2023/10/10 13:58:46;;;;;;;13.15;6.95;;;22.40;64.80;;;;;;5050275;28;20018;-73
2023/10/10 14:01:18;;;;;;;12.57;6.65;;;22.40;64.80;;;;;;5031924;28;20030;-73
2023/10/10 14:03:46;;;;;;;13.40;6.53;;;22.40;64.70;;;;;;5037959;28;20048;-74
2023/10/10 14:06:26;;;;;;;12.80;7.18;;;22.40;64.40;;;;;;5039260;28;20033;-74
2023/10/10 14:08:51;;;;;;;12.77;7.28;;;22.50;64.30;;;;;;5045482;28;20422;-73
2023/10/10 14:11:20;;;;;;;13.20;6.57;;;22.50;64.30;;;;;;5035883;28;20029;-73
2023/10/10 14:13:54;;;;;;;13.95;6.85;;;22.40;64.20;;;;;;5039721;28;20033;-73
2023/10/10 14:16:21;;;;;;;13.35;6.65;;;22.40;64.20;;;;;;5037716;28;20041;-73
2023/10/10 14:18:51;;;;;;;15.18;6.85;;;22.40;64.30;;;;;;5036772;28;20113;-74
2023/10/10 14:21:25;;;;;;;11.35;6.28;;;22.30;64.10;;;;;;5020175;28;20069;-73
2023/10/10 14:24:04;;;;;;;12.05;6.28;;;22.30;64.30;;;;;;5035541;28;20039;-73
2023/10/10 14:26:33;;;;;;;12.57;6.40;;;22.30;64.40;;;;;;5038848;28;20124;-74
2023/10/10 14:29:05;;;;;;;12.23;6.57;;;22.20;64.60;;;;;;5040808;28;20033;-74
2023/10/10 14:31:31;;;;;;;11.70;6.38;;;22.10;64.60;;;;;;5038649;28;20473;-74
2023/10/10 14:34:01;;;;;;;11.32;6.68;;;22.10;64.60;;;;;;5043897;28;20049;-72
2023/10/10 14:36:30;;;;;;;13.07;5.90;;;22.10;64.70;;;;;;5029905;28;20037;-73
2023/10/10 14:38:59;;;;;;;12.02;6.22;;;22.00;64.80;;;;;;5044322;28;20116;-73
2023/10/10 14:41:32;;;;;;;10.38;5.47;;;22.00;65.00;;;;;;5029742;28;20025;-73
2023/10/10 14:44:01;;;;;;;11.57;5.97;;;22.00;65.20;;;;;;5029811;28;20695;-72
2023/10/10 14:46:32;;;;;;;11.63;6.22;;;22.00;65.30;;;;;;5031334;28;20088;-74
2023/10/10 14:49:06;;;;;;;10.73;5.63;;;21.90;65.40;;;;;;5030489;28;20049;-71
2023/10/10 14:51:34;;;;;;;14.32;6.13;;;21.90;65.50;;;;;;5036510;28;20525;-69
2023/10/10 14:54:09;;;;;;;14.38;6.68;;;21.90;65.60;;;;;;5029201;28;20044;-70
2023/10/10 14:56:36;;;;;;;12.05;6.18;;;22.00;65.60;;;;;;5029514;28;20444;-68
2023/10/10 14:59:04;;;;;;;13.57;6.18;;;22.00;65.50;;;;;;5034634;28;20430;-71
2023/10/10 15:01:34;;;;;;;10.82;5.90;;;22.00;65.50;;;;;;5035625;28;20382;-71
2023/10/10 15:04:04;;;;;;;13.68;6.22;;;22.00;65.40;;;;;;5039257;28;20454;-72
2023/10/10 15:06:34;;;;;;;12.02;6.32;;;22.10;65.40;;;;;;5036087;28;20037;-71
2023/10/10 15:09:01;;;;;;;13.00;6.20;;;22.10;65.20;;;;;;5037747;28;20025;-71
2023/10/10 15:11:30;;;;;;;11.75;6.45;;;22.10;65.10;;;;;;5036523;28;20116;-72
2023/10/10 15:13:59;;;;;;;11.88;5.13;;;22.10;64.90;;;;;;5023149;28;20450;-72
2023/10/10 15:16:34;;;;;;;11.68;5.53;;;22.10;64.60;;;;;;5038300;28;20116;-71
2023/10/10 15:19:02;;;;;;;11.88;5.85;;;22.00;64.40;;;;;;5038417;28;20026;-71
2023/10/10 15:21:32;;;;;;;11.98;6.07;;;22.00;64.10;;;;;;5036965;28;20022;-72
2023/10/10 15:23:59;;;;;;;10.75;4.93;;;22.00;64.10;;;;;;5040647;28;20075;-72
2023/10/10 15:26:27;;;;;;;9.75;5.20;;;21.90;64.00;;;;;;5050650;28;20064;-71
2023/10/10 15:28:53;;;;;;;8.82;4.68;;;21.90;64.50;;;;;;5036487;28;20029;-67
2023/10/10 15:31:29;;;;;;;10.55;5.43;;;21.90;63.70;;;;;;5038093;28;20033;-70
2023/10/10 15:33:57;;;;;;;10.80;5.13;;;21.90;63.40;;;;;;5035381;28;20449;-71
2023/10/10 15:36:30;;;;;;;10.93;5.40;;;21.80;63.30;;;;;;5036689;28;20029;-70
2023/10/10 15:39:07;;;;;;;11.40;4.85;;;21.80;63.40;;;;;;5034697;28;20082;-72
2023/10/10 15:41:37;;;;;;;10.60;4.88;;;21.80;63.50;;;;;;5035578;28;20040;-72
2023/10/10 15:44:04;;;;;;;10.43;5.50;;;21.80;63.60;;;;;;5033867;28;20107;-72
2023/10/10 15:46:33;;;;;;;11.15;4.90;;;21.70;63.60;;;;;;5034158;28;20029;-72
2023/10/10 15:49:00;;;;;;;10.43;5.07;;;21.70;63.50;;;;;;5043030;28;20025;-72
2023/10/10 15:51:27;;;;;;;11.50;5.13;;;21.70;63.70;;;;;;5054285;28;20131;-73